Forside
METAR-TAF:

METAR-TAF

Lufthavne :

Dodge Center Airport (Dodge Center Municipal)

Dodge Center, Minnesota, USA

Breddekreds: 44-01-05N, længdekreds: 092-49-53W, højde: 398 m

Aktuelle vejr

Denne rapport blev lavet for 22 minutter siden, kl. 19:56 UTC
Vind 11 kt fra syd
Temperatur 0°C
Fugtighed 80%
Tryk 1014 hPa
Sigt: 16.1 km
skyfri

METAR: KTOB 221956Z AUTO 17011KT 10SM CLR 00/M03 A2995 RMK AO2

Tid: 14:18 (20:18 UTC)


TAF: fraværende

Vejrobservationer og prognoser fra mere end 4000 lufthavne (METAR og TAF).

De gule og røde prikker repræsenterer de meteorologiske stationer.

Flyt musen over at se navnet på stationen.

Så klik over at se vejr observationer og prognoser.

At skifte det kort: Klik på de grønne knapper med et sort kors for at zoome ind; på den grønne knap med en bindestreg for at zoome ud; eller på de grønne pile for tilstødende kort.


METAR-TAF: